Time;durP1;ratioP1;P1;durP2;ratioP2;P2;SDS_P1;SDS_P2;PMS_P1;PMS_P2;Temp;Humidity;BMP_temperature;BMP_pressure;BME280_temperature;BME280_humidity;BME280_pressure;Samples;Min_cycle;Max_cycle;Signal;HPM_P1;HPM_P2
2024/01/02 00:02:24;;;;;;;3.17;1.23;;;22.50;34.90;;;;;;4944287;28;20063;-55
2024/01/02 00:04:51;;;;;;;4.82;1.52;;;22.50;34.90;;;;;;4945649;29;20055;-57
2024/01/02 00:07:18;;;;;;;2.28;1.10;;;22.40;34.90;;;;;;4945336;28;20078;-58
2024/01/02 00:09:47;;;;;;;2.65;1.48;;;22.40;35.00;;;;;;4947041;28;20424;-59
2024/01/02 00:12:14;;;;;;;5.05;1.17;;;22.40;35.00;;;;;;4946403;28;20059;-59
2024/01/02 00:14:41;;;;;;;3.75;1.30;;;22.40;35.00;;;;;;4944786;28;20154;-56
2024/01/02 00:17:08;;;;;;;3.15;1.33;;;22.40;35.00;;;;;;4945623;28;20495;-56
2024/01/02 00:19:36;;;;;;;3.13;1.23;;;22.30;35.00;;;;;;4944744;29;20055;-58
2024/01/02 00:22:03;;;;;;;3.33;1.30;;;22.30;35.00;;;;;;4947518;28;20051;-58
2024/01/02 00:24:29;;;;;;;3.22;1.25;;;22.30;35.10;;;;;;4944662;28;20062;-55
2024/01/02 00:26:58;;;;;;;3.08;1.20;;;22.40;35.20;;;;;;4946516;28;20047;-55
2024/01/02 00:29:25;;;;;;;4.05;1.40;;;22.40;35.30;;;;;;4948510;28;20055;-55
2024/01/02 00:31:52;;;;;;;4.35;1.50;;;22.40;35.30;;;;;;4946525;29;20047;-57
2024/01/02 00:34:19;;;;;;;2.58;0.98;;;22.50;35.30;;;;;;4945010;28;20066;-59
2024/01/02 00:36:47;;;;;;;2.40;1.10;;;22.50;35.30;;;;;;4945838;28;20058;-57
2024/01/02 00:39:14;;;;;;;2.20;1.10;;;22.50;35.20;;;;;;4945872;28;20067;-56
2024/01/02 00:41:42;;;;;;;2.53;0.98;;;22.60;35.20;;;;;;4949310;28;20515;-56
2024/01/02 00:44:11;;;;;;;1.85;0.95;;;22.60;35.20;;;;;;4948392;29;20066;-58
2024/01/02 00:46:38;;;;;;;2.28;1.17;;;22.60;35.20;;;;;;4951651;28;20067;-57
2024/01/02 00:49:06;;;;;;;2.40;1.05;;;22.70;35.20;;;;;;4947784;28;20074;-59
2024/01/02 00:51:33;;;;;;;3.63;1.30;;;22.70;35.20;;;;;;4949913;28;20059;-54
2024/01/02 00:54:00;;;;;;;3.03;1.05;;;22.70;35.10;;;;;;4949802;28;20051;-59
2024/01/02 00:56:28;;;;;;;3.58;1.10;;;22.70;35.10;;;;;;4945943;28;20055;-57
2024/01/02 00:58:55;;;;;;;3.15;1.23;;;22.70;35.10;;;;;;4949075;29;20058;-59
2024/01/02 01:01:24;;;;;;;2.30;1.02;;;22.70;35.10;;;;;;4945548;28;20416;-58
2024/01/02 01:03:52;;;;;;;3.22;1.20;;;22.70;35.10;;;;;;4949755;28;20051;-57
2024/01/02 01:06:19;;;;;;;1.45;0.63;;;22.70;35.10;;;;;;4951066;29;20054;-58
2024/01/02 01:08:46;;;;;;;1.80;0.95;;;22.70;35.10;;;;;;4949355;29;20058;-58
2024/01/02 01:11:13;;;;;;;1.33;0.70;;;22.70;35.10;;;;;;4949963;29;20055;-58
2024/01/02 01:13:41;;;;;;;1.90;0.88;;;22.70;35.10;;;;;;4948268;29;20055;-59
2024/01/02 01:16:08;;;;;;;1.83;0.82;;;22.70;35.10;;;;;;4945966;28;20054;-59
2024/01/02 01:18:36;;;;;;;1.05;0.70;;;22.70;35.10;;;;;;4947333;28;20054;-55
2024/01/02 01:21:04;;;;;;;1.52;0.65;;;22.70;35.10;;;;;;4950916;28;20047;-55
2024/01/02 01:23:31;;;;;;;1.55;0.77;;;22.60;35.10;;;;;;4944886;28;20058;-56
2024/01/02 01:25:59;;;;;;;0.93;0.70;;;22.60;35.10;;;;;;4946544;29;20428;-55
2024/01/02 01:28:26;;;;;;;1.65;0.70;;;22.60;35.10;;;;;;4946362;28;20692;-56
2024/01/02 01:30:53;;;;;;;1.83;0.60;;;22.60;35.10;;;;;;4948945;28;20051;-56
2024/01/02 01:33:21;;;;;;;1.63;0.70;;;22.60;35.10;;;;;;4948000;28;20430;-57
2024/01/02 01:35:50;;;;;;;1.00;0.50;;;22.60;35.20;;;;;;4948039;28;20603;-56
2024/01/02 01:38:17;;;;;;;1.20;0.60;;;22.60;35.10;;;;;;4948406;28;20059;-55
2024/01/02 01:40:44;;;;;;;0.65;0.50;;;22.50;35.30;;;;;;4950194;28;20059;-56
2024/01/02 01:43:12;;;;;;;1.77;0.60;;;22.50;35.20;;;;;;4949021;28;20079;-54
2024/01/02 01:45:40;;;;;;;0.90;0.47;;;22.50;35.10;;;;;;4947964;28;20070;-55
2024/01/02 01:48:09;;;;;;;0.50;0.43;;;22.50;35.10;;;;;;4947277;28;20054;-56
2024/01/02 01:50:37;;;;;;;0.98;0.50;;;22.50;35.10;;;;;;4946860;28;20059;-57
2024/01/02 01:53:07;;;;;;;0.70;0.40;;;22.50;35.10;;;;;;4946815;29;20055;-55
2024/01/02 01:55:34;;;;;;;1.98;0.60;;;22.40;35.10;;;;;;4943795;28;20066;-57
2024/01/02 01:58:03;;;;;;;1.73;0.60;;;22.40;35.20;;;;;;4945950;28;20055;-56
2024/01/02 02:00:31;;;;;;;1.20;0.70;;;22.40;35.20;;;;;;4947582;28;20063;-57
2024/01/02 02:02:59;;;;;;;0.95;0.30;;;22.40;35.30;;;;;;4946077;28;20646;-57
2024/01/02 02:05:27;;;;;;;1.17;0.43;;;22.40;35.30;;;;;;4945883;28;20412;-56
2024/01/02 02:07:55;;;;;;;0.85;0.30;;;22.40;35.40;;;;;;4946755;29;20059;-55
2024/01/02 02:10:24;;;;;;;1.27;0.40;;;22.40;35.40;;;;;;4948460;28;20488;-57
2024/01/02 02:12:51;;;;;;;1.38;0.40;;;22.50;35.50;;;;;;4947054;28;20058;-54
2024/01/02 02:15:19;;;;;;;1.52;0.82;;;22.50;35.40;;;;;;4949263;28;20055;-54
2024/01/02 02:17:46;;;;;;;0.90;0.30;;;22.60;35.50;;;;;;4947150;28;20054;-57
2024/01/02 02:20:13;;;;;;;1.05;0.38;;;22.60;35.40;;;;;;4948019;29;20082;-57
2024/01/02 02:22:48;;;;;;;1.50;0.35;;;22.70;35.40;;;;;;4949130;28;20411;-55
2024/01/02 02:25:16;;;;;;;0.90;0.38;;;22.70;35.40;;;;;;4947001;28;20444;-56
2024/01/02 02:27:45;;;;;;;0.52;0.22;;;22.80;35.40;;;;;;4947162;28;20059;-56
2024/01/02 02:30:12;;;;;;;1.70;0.52;;;22.70;35.30;;;;;;4943911;29;20055;-57
2024/01/02 02:32:40;;;;;;;1.42;0.50;;;22.80;35.30;;;;;;4947179;28;20480;-57
2024/01/02 02:35:08;;;;;;;1.10;0.50;;;22.80;35.20;;;;;;4946703;29;20051;-58
2024/01/02 02:37:35;;;;;;;0.80;0.40;;;22.80;35.20;;;;;;4939388;28;20431;-57
2024/01/02 02:40:04;;;;;;;0.63;0.28;;;22.80;35.20;;;;;;4947919;28;20062;-57
2024/01/02 02:42:32;;;;;;;0.75;0.30;;;22.80;35.20;;;;;;4946062;28;20047;-55
2024/01/02 02:45:00;;;;;;;0.55;0.40;;;22.80;35.20;;;;;;4946790;28;20517;-58
2024/01/02 02:47:27;;;;;;;0.45;0.30;;;22.80;35.30;;;;;;4939524;29;20051;-58
2024/01/02 02:49:54;;;;;;;0.25;0.20;;;22.80;35.20;;;;;;4940211;29;20066;-56
2024/01/02 02:52:21;;;;;;;0.75;0.28;;;22.80;35.20;;;;;;4940444;29;20047;-58
2024/01/02 02:54:48;;;;;;;0.32;0.13;;;22.80;35.20;;;;;;4945619;28;20062;-58
2024/01/02 02:57:17;;;;;;;1.33;0.28;;;22.80;35.20;;;;;;4948098;28;20054;-58
2024/01/02 02:59:44;;;;;;;0.80;0.30;;;22.80;35.20;;;;;;4939799;28;20055;-57
2024/01/02 03:02:11;;;;;;;1.17;0.40;;;22.70;35.10;;;;;;4940446;28;20397;-57
2024/01/02 03:04:39;;;;;;;0.52;0.30;;;22.70;35.10;;;;;;4936532;28;20070;-58
2024/01/02 03:07:06;;;;;;;0.55;0.20;;;22.70;35.20;;;;;;4945648;28;20059;-58
2024/01/02 03:09:33;;;;;;;1.27;0.40;;;22.70;35.20;;;;;;4946049;28;20141;-57
2024/01/02 03:12:00;;;;;;;0.60;0.30;;;22.70;35.20;;;;;;4941201;29;20052;-57
2024/01/02 03:14:29;;;;;;;0.52;0.20;;;22.60;35.20;;;;;;4945072;29;20055;-54
2024/01/02 03:16:56;;;;;;;0.22;0.15;;;22.60;35.20;;;;;;4939463;28;20500;-57
2024/01/02 03:19:23;;;;;;;1.02;0.45;;;22.60;35.20;;;;;;4944110;28;20061;-57
2024/01/02 03:21:51;;;;;;;0.73;0.25;;;22.60;35.20;;;;;;4947869;28;20051;-55
2024/01/02 03:24:18;;;;;;;0.17;0.17;;;22.50;35.10;;;;;;4947897;28;20058;-58
2024/01/02 03:26:45;;;;;;;0.15;0.15;;;22.50;35.20;;;;;;4945922;28;20051;-55
2024/01/02 03:29:13;;;;;;;0.63;0.30;;;22.50;35.20;;;;;;4947065;29;20059;-58
2024/01/02 03:31:42;;;;;;;0.75;0.28;;;22.50;35.20;;;;;;4944872;28;20066;-55
2024/01/02 03:34:09;;;;;;;2.00;0.30;;;22.50;35.20;;;;;;4947122;28;20058;-55
2024/01/02 03:36:36;;;;;;;0.30;0.17;;;22.50;35.30;;;;;;4939651;28;20055;-57
2024/01/02 03:39:05;;;;;;;0.30;0.15;;;22.40;35.30;;;;;;4946420;28;20440;-57
2024/01/02 03:41:32;;;;;;;0.25;0.10;;;22.40;35.40;;;;;;4947008;29;20059;-56
2024/01/02 03:43:59;;;;;;;0.55;0.17;;;22.40;35.40;;;;;;4934846;28;20059;-57
2024/01/02 03:46:26;;;;;;;0.45;0.10;;;22.40;35.50;;;;;;4944932;28;20055;-55
2024/01/02 03:48:55;;;;;;;0.20;0.10;;;22.40;35.50;;;;;;4945173;28;20055;-57
2024/01/02 03:51:22;;;;;;;0.60;0.20;;;22.50;35.60;;;;;;4940259;28;20059;-57
2024/01/02 03:53:50;;;;;;;1.30;0.40;;;22.50;35.60;;;;;;4949971;28;20425;-57
2024/01/02 03:56:17;;;;;;;3.15;0.20;;;22.50;35.50;;;;;;4944675;29;20051;-55
2024/01/02 03:58:44;;;;;;;0.55;0.22;;;22.60;35.50;;;;;;4938979;28;20068;-56
2024/01/02 04:01:11;;;;;;;2.47;0.32;;;22.60;35.50;;;;;;4939819;28;20058;-56
2024/01/02 04:03:39;;;;;;;0.20;0.17;;;22.70;35.50;;;;;;4937871;29;20051;-56
2024/01/02 04:06:07;;;;;;;0.40;0.20;;;22.70;35.50;;;;;;4947517;28;20791;-57
2024/01/02 04:08:37;;;;;;;0.20;0.10;;;22.70;35.40;;;;;;4943717;29;21059;-57
2024/01/02 04:11:04;;;;;;;0.35;0.10;;;22.70;35.40;;;;;;4941020;28;20513;-57
2024/01/02 04:13:31;;;;;;;0.40;0.10;;;22.80;35.40;;;;;;4945797;28;20056;-56
2024/01/02 04:15:59;;;;;;;0.30;0.10;;;22.80;35.40;;;;;;4948592;28;20113;-55
2024/01/02 04:18:26;;;;;;;0.82;0.30;;;22.80;35.30;;;;;;4949286;28;20567;-55
2024/01/02 04:20:53;;;;;;;0.90;0.10;;;22.80;35.30;;;;;;4948296;28;20055;-57
2024/01/02 04:23:22;;;;;;;0.20;0.10;;;22.80;35.30;;;;;;4950449;29;20051;-55
2024/01/02 04:25:49;;;;;;;0.20;0.10;;;22.70;35.20;;;;;;4948603;28;20063;-57
2024/01/02 04:28:16;;;;;;;0.10;0.10;;;22.80;35.30;;;;;;4949514;28;20055;-58
2024/01/02 04:30:43;;;;;;;0.22;0.10;;;22.70;35.20;;;;;;4948587;28;20058;-57
2024/01/02 04:33:11;;;;;;;0.10;0.10;;;22.70;35.20;;;;;;4946110;28;20400;-58
2024/01/02 04:35:38;;;;;;;1.00;0.28;;;22.80;35.20;;;;;;4950615;29;20420;-57
2024/01/02 04:38:05;;;;;;;0.60;0.17;;;22.70;35.20;;;;;;4946239;28;20055;-53
2024/01/02 04:40:33;;;;;;;0.85;0.15;;;22.60;35.40;;;;;;4941992;29;20059;-56
2024/01/02 04:43:01;;;;;;;0.30;0.17;;;22.60;35.20;;;;;;4942555;28;20062;-55
2024/01/02 04:45:28;;;;;;;0.55;0.20;;;22.60;35.20;;;;;;4948255;28;20062;-56
2024/01/02 04:47:55;;;;;;;1.73;0.30;;;22.60;35.20;;;;;;4948332;28;20055;-55
2024/01/02 04:50:22;;;;;;;2.05;0.17;;;22.60;35.30;;;;;;4949891;29;20055;-56
2024/01/02 04:52:50;;;;;;;0.20;0.15;;;22.60;35.40;;;;;;4949836;28;20058;-56
2024/01/02 04:55:17;;;;;;;0.60;0.20;;;22.50;35.30;;;;;;4948425;28;20078;-57
2024/01/02 04:57:45;;;;;;;0.20;0.10;;;22.50;35.30;;;;;;4947592;28;20066;-57
2024/01/02 05:00:13;;;;;;;0.20;0.08;;;22.50;35.40;;;;;;4949109;28;20051;-57
2024/01/02 05:02:41;;;;;;;0.60;0.20;;;22.50;35.40;;;;;;4948844;28;20059;-57
2024/01/02 05:05:08;;;;;;;0.17;0.00;;;22.50;35.70;;;;;;4945270;28;20051;-57
2024/01/02 05:07:35;;;;;;;0.45;0.10;;;22.40;35.40;;;;;;4941847;28;20047;-58
2024/01/02 05:10:03;;;;;;;0.10;0.05;;;22.40;35.50;;;;;;4947526;28;20054;-58
2024/01/02 05:12:31;;;;;;;0.22;0.10;;;22.40;35.50;;;;;;4948789;28;20063;-56
2024/01/02 05:14:59;;;;;;;0.60;0.10;;;22.40;35.60;;;;;;4949173;29;20055;-56
2024/01/02 05:17:26;;;;;;;0.30;0.10;;;22.40;35.60;;;;;;4947628;28;20420;-57
2024/01/02 05:19:54;;;;;;;1.42;0.20;;;22.40;35.70;;;;;;4946075;28;20051;-54
2024/01/02 05:22:21;;;;;;;0.70;0.15;;;22.50;35.80;;;;;;4946256;28;20051;-57
2024/01/02 05:24:48;;;;;;;0.13;0.10;;;22.50;35.70;;;;;;4946192;28;20051;-53
2024/01/02 05:27:16;;;;;;;1.52;0.10;;;22.60;35.70;;;;;;4948344;28;20077;-56
2024/01/02 05:29:43;;;;;;;0.00;0.00;;;22.60;35.70;;;;;;4947973;29;20389;-56
2024/01/02 05:32:12;;;;;;;0.10;0.00;;;22.70;35.70;;;;;;4946669;28;20062;-57
2024/01/02 05:34:39;;;;;;;0.20;0.05;;;22.80;35.70;;;;;;4948466;28;20059;-56
2024/01/02 05:37:06;;;;;;;0.30;0.00;;;22.80;35.60;;;;;;4947280;29;20051;-55
2024/01/02 05:39:34;;;;;;;0.38;0.15;;;22.80;35.60;;;;;;4940383;28;20526;-57
2024/01/02 05:42:01;;;;;;;0.20;0.10;;;22.90;35.60;;;;;;4948991;29;20063;-57
2024/01/02 05:44:28;;;;;;;0.10;0.10;;;22.90;35.60;;;;;;4945949;28;20527;-55
2024/01/02 05:46:55;;;;;;;0.25;0.10;;;22.90;35.50;;;;;;4943394;29;20062;-54
2024/01/02 05:49:24;;;;;;;0.00;0.00;;;22.90;35.50;;;;;;4943062;28;20094;-56
2024/01/02 05:51:51;;;;;;;2.00;0.32;;;22.90;35.50;;;;;;4946454;28;20055;-58
2024/01/02 05:54:18;;;;;;;1.05;0.10;;;22.90;35.50;;;;;;4947380;28;20054;-56
2024/01/02 05:56:46;;;;;;;4.30;0.20;;;22.90;35.60;;;;;;4947335;29;20755;-58
2024/01/02 05:59:13;;;;;;;11.75;0.28;;;22.90;35.60;;;;;;4946941;28;20054;-51
2024/01/02 06:01:40;;;;;;;8.05;0.40;;;22.90;35.60;;;;;;4947085;28;20055;-54
2024/01/02 06:04:08;;;;;;;3.80;0.20;;;22.90;35.60;;;;;;4946552;28;20492;-56
2024/01/02 06:06:36;;;;;;;13.55;0.60;;;22.90;35.70;;;;;;4948049;28;20047;-55
2024/01/02 06:09:05;;;;;;;6.63;0.52;;;22.90;35.70;;;;;;4949251;28;20507;-56
2024/01/02 06:11:32;;;;;;;7.80;0.40;;;22.90;35.70;;;;;;4942658;29;20062;-57
2024/01/02 06:13:59;;;;;;;7.22;0.40;;;22.90;35.80;;;;;;4948844;28;20617;-55
2024/01/02 06:16:27;;;;;;;5.60;0.40;;;23.00;35.80;;;;;;4951486;28;20051;-56
2024/01/02 06:18:54;;;;;;;4.40;0.25;;;23.00;35.80;;;;;;4947691;28;20534;-53
2024/01/02 06:21:21;;;;;;;9.73;4.57;;;23.00;35.80;;;;;;4950749;28;20058;-56
2024/01/02 06:23:50;;;;;;;29.83;11.05;;;23.10;35.90;;;;;;4952461;29;20051;-57
2024/01/02 06:26:17;;;;;;;16.20;8.77;;;23.00;35.70;;;;;;4945842;28;20059;-56
2024/01/02 06:28:44;;;;;;;9.80;4.93;;;23.10;35.80;;;;;;4938624;28;20063;-58
2024/01/02 06:31:11;;;;;;;5.10;3.10;;;23.10;35.80;;;;;;4944211;28;20055;-56
2024/01/02 06:33:44;;;;;;;10.27;3.10;;;23.10;35.70;;;;;;4938300;28;20485;-57
2024/01/02 06:36:11;;;;;;;5.47;2.63;;;23.10;35.70;;;;;;4952192;28;20059;-58
2024/01/02 06:38:38;;;;;;;5.55;2.42;;;23.10;35.70;;;;;;4948087;28;20055;-57
2024/01/02 06:41:07;;;;;;;5.85;1.90;;;23.10;35.70;;;;;;4950727;29;20416;-56
2024/01/02 06:43:34;;;;;;;3.92;1.65;;;23.10;35.70;;;;;;4954374;28;20055;-58
2024/01/02 06:46:03;;;;;;;3.42;1.67;;;23.10;35.70;;;;;;4950162;29;20059;-56
2024/01/02 06:48:31;;;;;;;2.42;1.23;;;23.10;35.70;;;;;;4952927;28;20498;-53
2024/01/02 06:50:58;;;;;;;3.75;1.40;;;23.10;35.80;;;;;;4950947;29;20053;-57
2024/01/02 06:53:25;;;;;;;2.08;1.30;;;23.00;35.80;;;;;;4952210;28;20059;-56
2024/01/02 06:55:53;;;;;;;3.88;1.15;;;23.00;35.80;;;;;;4950806;28;20062;-56
2024/01/02 06:58:22;;;;;;;1.88;0.90;;;23.00;35.80;;;;;;4949760;28;20506;-55
2024/01/02 07:00:50;;;;;;;2.13;0.68;;;23.00;35.80;;;;;;4951420;28;20055;-55
2024/01/02 07:03:18;;;;;;;1.33;0.90;;;23.00;35.80;;;;;;4951496;28;20500;-55
2024/01/02 07:05:45;;;;;;;4.38;0.90;;;23.00;35.80;;;;;;4947684;29;20054;-55
2024/01/02 07:08:12;;;;;;;2.05;0.70;;;23.00;35.80;;;;;;4950437;29;20055;-57
2024/01/02 07:10:40;;;;;;;1.23;0.40;;;23.00;35.80;;;;;;4949734;28;20425;-56
2024/01/02 07:13:08;;;;;;;6.82;0.57;;;22.90;35.70;;;;;;4946552;28;20559;-56
2024/01/02 07:15:38;;;;;;;0.60;0.35;;;22.90;35.70;;;;;;4946266;29;20058;-55
2024/01/02 07:18:05;;;;;;;1.65;0.32;;;22.90;36.20;;;;;;4950854;28;20051;-52
2024/01/02 07:20:32;;;;;;;2.15;0.40;;;22.90;35.80;;;;;;4951424;28;20055;-57
2024/01/02 07:22:59;;;;;;;0.95;0.30;;;22.80;35.70;;;;;;4949792;28;20051;-56
2024/01/02 07:25:27;;;;;;;0.52;0.20;;;22.80;35.80;;;;;;4950856;28;20047;-53
2024/01/02 07:27:54;;;;;;;0.32;0.10;;;22.80;35.80;;;;;;4948330;28;20051;-56
2024/01/02 07:30:21;;;;;;;1.88;0.82;;;22.80;35.90;;;;;;4956701;28;20526;-57
2024/01/02 07:32:50;;;;;;;3.60;0.30;;;22.70;35.80;;;;;;4948348;28;20058;-56
2024/01/02 07:35:17;;;;;;;0.30;0.20;;;22.70;35.90;;;;;;4951911;28;20051;-58
2024/01/02 07:37:46;;;;;;;2.63;0.60;;;22.70;35.90;;;;;;4950819;28;20425;-57
2024/01/02 07:40:13;;;;;;;5.88;1.45;;;22.60;35.90;;;;;;4950210;28;20067;-57
2024/01/02 07:42:41;;;;;;;5.72;2.83;;;22.60;35.90;;;;;;4949553;28;20051;-58
2024/01/02 07:45:09;;;;;;;7.50;4.55;;;22.60;36.00;;;;;;4949575;28;20051;-58
2024/01/02 07:47:38;;;;;;;8.35;3.70;;;22.60;36.00;;;;;;4943265;29;20059;-57
2024/01/02 07:50:07;;;;;;;8.30;3.17;;;22.50;36.00;;;;;;4950434;28;20050;-58
2024/01/02 07:52:35;;;;;;;4.95;2.90;;;22.50;36.00;;;;;;4953023;28;20543;-58
2024/01/02 07:55:02;;;;;;;4.00;2.33;;;22.50;36.10;;;;;;4953035;28;20051;-54
2024/01/02 07:57:30;;;;;;;4.50;2.35;;;22.50;36.10;;;;;;4953653;28;20051;-53
2024/01/02 07:59:57;;;;;;;4.18;2.10;;;22.50;36.10;;;;;;4953946;29;20514;-56
2024/01/02 08:02:24;;;;;;;3.03;2.17;;;22.50;36.20;;;;;;4953093;28;20051;-55
2024/01/02 08:04:52;;;;;;;4.60;2.15;;;22.50;36.20;;;;;;4951797;28;20051;-58
2024/01/02 08:07:20;;;;;;;2.63;1.90;;;22.50;36.20;;;;;;4953104;28;20059;-58
2024/01/02 08:09:48;;;;;;;3.08;2.10;;;22.50;36.20;;;;;;4953046;28;20054;-53
2024/01/02 08:12:15;;;;;;;2.17;1.60;;;22.60;36.30;;;;;;4953711;29;20055;-55
2024/01/02 08:14:43;;;;;;;3.20;1.50;;;22.70;36.30;;;;;;4952300;28;20062;-57
2024/01/02 08:17:10;;;;;;;1.50;1.20;;;22.70;36.20;;;;;;4952937;28;20051;-57
2024/01/02 08:19:38;;;;;;;6.70;1.70;;;22.70;36.20;;;;;;4950791;28;20059;-58
2024/01/02 08:22:05;;;;;;;2.35;1.35;;;22.80;36.40;;;;;;4952503;28;20531;-61
2024/01/02 08:24:34;;;;;;;5.30;1.23;;;22.80;36.50;;;;;;4953289;28;20058;-56
2024/01/02 08:27:01;;;;;;;3.17;1.27;;;22.90;36.60;;;;;;4953665;29;20055;-59
2024/01/02 08:29:28;;;;;;;4.80;2.00;;;22.90;36.50;;;;;;4951161;28;21047;-56
2024/01/02 08:31:55;;;;;;;3.63;2.55;;;23.00;36.50;;;;;;4951995;28;20059;-58
2024/01/02 08:34:23;;;;;;;11.90;3.20;;;23.10;36.40;;;;;;4945478;28;20051;-60
2024/01/02 08:36:50;;;;;;;7.53;2.20;;;23.10;36.40;;;;;;4952992;28;20074;-60
2024/01/02 08:39:17;;;;;;;8.13;2.58;;;23.20;36.40;;;;;;4952900;29;20496;-60
2024/01/02 08:41:46;;;;;;;8.05;2.53;;;23.20;36.30;;;;;;4951755;28;20066;-59
2024/01/02 08:44:13;;;;;;;7.38;2.28;;;23.20;36.30;;;;;;4951426;28;20397;-58
2024/01/02 08:46:41;;;;;;;6.57;1.95;;;23.20;36.20;;;;;;4951966;28;20054;-57
2024/01/02 08:49:08;;;;;;;5.45;1.50;;;23.30;36.20;;;;;;4951069;28;20507;-59
2024/01/02 08:51:35;;;;;;;3.03;1.58;;;23.30;36.20;;;;;;4953116;29;20059;-59
2024/01/02 08:54:03;;;;;;;5.95;1.58;;;23.30;36.10;;;;;;4951726;28;20140;-60
2024/01/02 08:56:30;;;;;;;6.28;1.30;;;23.30;36.10;;;;;;4951826;28;20408;-61
2024/01/02 08:58:59;;;;;;;7.43;1.55;;;23.30;36.10;;;;;;4952086;28;20058;-60
2024/01/02 09:01:26;;;;;;;4.15;1.23;;;23.40;36.10;;;;;;4951510;28;20051;-59
2024/01/02 09:03:54;;;;;;;3.00;0.90;;;23.30;36.00;;;;;;4950569;28;20786;-59
2024/01/02 09:06:21;;;;;;;4.78;1.00;;;23.30;36.00;;;;;;4952126;29;20424;-61
2024/01/02 09:08:49;;;;;;;6.47;0.93;;;23.30;36.00;;;;;;4952112;28;20058;-60
2024/01/02 09:11:17;;;;;;;9.52;1.23;;;23.30;36.10;;;;;;4951987;28;20055;-60
2024/01/02 09:13:44;;;;;;;4.72;1.40;;;23.30;36.10;;;;;;4947348;28;20059;-59
2024/01/02 09:16:13;;;;;;;2.90;1.20;;;23.30;36.10;;;;;;4948707;28;20047;-59
2024/01/02 09:18:40;;;;;;;5.85;1.33;;;23.30;36.00;;;;;;4947330;29;20078;-59
2024/01/02 09:21:08;;;;;;;1.65;1.05;;;23.30;36.60;;;;;;4949346;28;20070;-59
2024/01/02 09:23:35;;;;;;;3.67;0.90;;;23.30;36.10;;;;;;4949272;28;20066;-60
2024/01/02 09:26:06;;;;;;;2.17;1.30;;;23.20;36.00;;;;;;4946512;28;20047;-60
2024/01/02 09:28:37;;;;;;;3.05;0.88;;;23.20;36.60;;;;;;4947561;28;20063;-59
2024/01/02 09:31:04;;;;;;;0.80;0.80;;;23.20;36.00;;;;;;4947988;28;20066;-62
2024/01/02 09:33:33;;;;;;;1.58;0.82;;;23.20;36.10;;;;;;4947572;28;20863;-61
2024/01/02 09:36:00;;;;;;;1.27;0.80;;;23.10;36.10;;;;;;4945834;28;20055;-59
2024/01/02 09:38:27;;;;;;;1.05;0.65;;;23.10;36.10;;;;;;4945599;28;20052;-63
2024/01/02 09:41:14;;;;;;;0.40;0.40;;;23.10;36.10;;;;;;4949248;28;20640;-62
2024/01/02 09:43:55;;;;;;;0.80;0.35;;;23.10;36.10;;;;;;4948361;28;20447;-62
2024/01/02 09:46:36;;;;;;;0.50;0.40;;;23.00;36.10;;;;;;4949048;28;20474;-62
2024/01/02 09:49:23;;;;;;;0.40;0.30;;;23.00;36.10;;;;;;4945676;28;20062;-61
2024/01/02 09:52:04;;;;;;;0.40;0.40;;;23.00;36.20;;;;;;4950044;28;20508;-60
2024/01/02 09:54:44;;;;;;;0.65;0.30;;;23.00;36.20;;;;;;4947460;29;20051;-62
2024/01/02 09:57:17;;;;;;;0.55;0.30;;;23.00;36.30;;;;;;4947867;28;20058;-61
2024/01/02 10:00:03;;;;;;;0.45;0.40;;;23.00;36.20;;;;;;4947417;28;20055;-61
2024/01/02 10:03:02;;;;;;;0.30;0.30;;;23.00;36.30;;;;;;4947025;28;20058;-61
2024/01/02 10:05:45;;;;;;;0.20;0.20;;;23.10;36.30;;;;;;4947529;28;20054;-62
2024/01/02 10:08:37;;;;;;;0.20;0.20;;;23.10;36.20;;;;;;4948617;28;20051;-61
2024/01/02 10:11:16;;;;;;;0.35;0.30;;;23.20;36.20;;;;;;4943944;28;20055;-61
2024/01/02 10:13:49;;;;;;;0.73;0.35;;;23.20;36.20;;;;;;4947079;28;20059;-61
2024/01/02 10:16:23;;;;;;;0.10;0.10;;;23.20;36.20;;;;;;4945454;28;20659;-60
2024/01/02 10:19:03;;;;;;;0.20;0.20;;;23.20;36.10;;;;;;4947731;29;20055;-60
2024/01/02 10:21:43;;;;;;;1.00;0.20;;;23.20;36.10;;;;;;4943914;29;20051;-60
2024/01/02 10:24:22;;;;;;;0.50;0.40;;;23.20;36.10;;;;;;4945185;28;20516;-61
2024/01/02 10:27:03;;;;;;;0.40;0.40;;;23.20;36.10;;;;;;4946165;28;20050;-61
2024/01/02 10:29:38;;;;;;;0.20;0.20;;;23.20;36.00;;;;;;4946427;28;20055;-61
2024/01/02 10:32:12;;;;;;;0.52;0.30;;;23.20;36.00;;;;;;4945421;28;20055;-61
2024/01/02 10:34:51;;;;;;;0.20;0.13;;;23.20;36.00;;;;;;4944168;28;20055;-62
2024/01/02 10:37:27;;;;;;;1.48;0.40;;;23.20;36.00;;;;;;4945805;28;20059;-61
2024/01/02 10:40:06;;;;;;;0.32;0.20;;;23.20;36.00;;;;;;4947135;29;20055;-62
2024/01/02 10:42:43;;;;;;;0.25;0.20;;;23.20;36.00;;;;;;4952176;28;20062;-62
2024/01/02 10:45:18;;;;;;;0.65;0.13;;;23.20;36.00;;;;;;4944784;28;20054;-60
2024/01/02 10:48:01;;;;;;;0.95;0.28;;;23.20;36.10;;;;;;4949945;28;20063;-58
2024/01/02 10:50:34;;;;;;;0.77;0.30;;;23.20;36.10;;;;;;4946039;28;20059;-60
2024/01/02 10:53:15;;;;;;;0.97;0.20;;;23.10;36.00;;;;;;4945222;28;20058;-60
2024/01/02 10:55:49;;;;;;;20.25;0.77;;;23.20;36.00;;;;;;4946587;28;20051;-61
2024/01/02 11:08:32;;;;;;;2.15;0.20;;;23.10;36.10;;;;;;4922870;29;20047;-59
2024/01/02 11:11:01;;;;;;;;;;;23.00;36.10;;;;;;4923363;29;20063;-62
2024/01/02 11:13:29;;;;;;;4.35;0.30;;;23.00;36.10;;;;;;4923144;29;19927;-59
2024/01/02 11:15:59;;;;;;;3.83;0.50;;;23.00;36.10;;;;;;4925871;29;20043;-59
2024/01/02 11:18:31;;;;;;;4.47;0.52;;;22.90;36.10;;;;;;4927322;29;20055;-60
2024/01/02 11:21:02;;;;;;;3.97;0.50;;;22.90;36.30;;;;;;4944749;28;20055;-61
2024/01/02 11:23:38;;;;;;;2.03;0.40;;;22.90;36.30;;;;;;4945181;28;20065;-60
2024/01/02 11:26:12;;;;;;;0.82;0.30;;;22.90;36.40;;;;;;4947217;28;20055;-60
2024/01/02 11:28:41;;;;;;;;;;;22.80;36.40;;;;;;4950125;28;20063;-61
2024/01/02 11:31:10;;;;;;;2.83;0.20;;;22.80;36.30;;;;;;4946654;28;19926;-60
2024/01/02 11:33:45;;;;;;;0.75;0.25;;;22.80;36.20;;;;;;4947312;28;20071;-60
2024/01/02 11:36:25;;;;;;;2.47;0.25;;;22.80;36.30;;;;;;4945905;28;20054;-61
2024/01/02 11:39:04;;;;;;;2.63;0.32;;;22.80;36.40;;;;;;4946174;28;20444;-60
2024/01/02 11:41:43;;;;;;;5.15;0.45;;;22.80;36.50;;;;;;4949327;28;20051;-60
2024/01/02 11:44:25;;;;;;;2.33;0.28;;;22.80;36.60;;;;;;4942832;28;20054;-60
2024/01/02 11:47:02;;;;;;;4.28;0.38;;;22.80;36.60;;;;;;4945856;28;20400;-59
2024/01/02 11:49:30;;;;;;;8.82;0.63;;;22.90;36.70;;;;;;4947703;28;20503;-59
2024/01/02 11:52:03;;;;;;;2.40;0.32;;;22.90;36.60;;;;;;4950260;29;20066;-58
2024/01/02 11:54:41;;;;;;;4.90;0.40;;;23.00;36.60;;;;;;4949915;28;20070;-58
2024/01/02 11:57:30;;;;;;;3.83;0.50;;;23.00;36.60;;;;;;4949217;28;20059;-58
2024/01/02 12:00:06;;;;;;;4.47;0.40;;;23.10;36.50;;;;;;4949731;28;20051;-58
2024/01/02 12:02:45;;;;;;;4.90;0.43;;;23.10;36.40;;;;;;4948108;28;20424;-57
2024/01/02 12:05:21;;;;;;;2.92;0.25;;;23.20;36.40;;;;;;4948672;28;20051;-57
2024/01/02 12:07:53;;;;;;;2.38;0.20;;;23.20;36.40;;;;;;4949476;28;20062;-58
2024/01/02 12:10:26;;;;;;;1.95;0.13;;;23.20;36.40;;;;;;4949822;28;20059;-58
2024/01/02 12:13:01;;;;;;;4.20;0.10;;;23.20;36.40;;;;;;4949873;29;20051;-56
2024/01/02 12:15:39;;;;;;;4.43;0.20;;;23.20;36.30;;;;;;4948423;28;20055;-58
2024/01/02 12:18:07;;;;;;;2.50;0.40;;;23.20;36.30;;;;;;4949198;28;20400;-55
2024/01/02 12:20:40;;;;;;;1.85;0.30;;;23.20;36.30;;;;;;4947181;28;20479;-58
2024/01/02 12:23:08;;;;;;;1.77;0.30;;;23.20;36.60;;;;;;4949955;28;20480;-57
2024/01/02 12:25:39;;;;;;;0.03;0.03;;;23.20;36.20;;;;;;4949553;28;20061;-58
2024/01/02 12:28:07;;;;;;;1.85;0.20;;;23.20;36.20;;;;;;4949644;29;20056;-57
2024/01/02 12:30:41;;;;;;;0.63;0.20;;;23.20;36.20;;;;;;4949006;28;20058;-59
2024/01/02 12:33:10;;;;;;;;;;;23.20;36.30;;;;;;4942043;28;20071;-58
2024/01/02 12:35:55;;;;;;;0.30;0.05;;;23.20;36.30;;;;;;4950530;28;19926;-57
2024/01/02 12:38:23;;;;;;;0.22;0.10;;;23.20;36.10;;;;;;4951823;28;20062;-58
2024/01/02 12:40:55;;;;;;;0.10;0.05;;;23.20;36.10;;;;;;4953308;28;20051;-58
2024/01/02 12:43:25;;;;;;;1.02;0.20;;;23.10;36.10;;;;;;4949116;28;20519;-58
2024/01/02 12:46:02;;;;;;;0.88;0.10;;;23.10;36.20;;;;;;4952373;29;20404;-58
2024/01/02 12:48:38;;;;;;;0.73;0.20;;;23.10;36.30;;;;;;4951710;28;20081;-58
2024/01/02 12:51:06;;;;;;;0.22;0.10;;;23.10;36.20;;;;;;4951712;28;20499;-58
2024/01/02 12:53:35;;;;;;;1.27;0.13;;;23.00;36.20;;;;;;4952033;28;20393;-58
2024/01/02 12:56:06;;;;;;;0.20;0.08;;;23.00;36.20;;;;;;4952023;28;20058;-58
2024/01/02 12:58:33;;;;;;;0.43;0.20;;;23.00;36.30;;;;;;4952165;28;20054;-58
2024/01/02 13:01:02;;;;;;;0.30;0.10;;;23.00;36.30;;;;;;4953495;29;20055;-56
2024/01/02 13:03:30;;;;;;;0.25;0.10;;;23.00;36.30;;;;;;4950725;28;20066;-59
2024/01/02 13:05:58;;;;;;;0.20;0.10;;;23.00;36.40;;;;;;4951087;28;20058;-56
2024/01/02 13:08:25;;;;;;;0.50;0.22;;;22.90;36.30;;;;;;4948797;28;20408;-58
2024/01/02 13:10:55;;;;;;;0.55;0.30;;;22.90;36.30;;;;;;4952674;28;20408;-58